Aeroporto :
LOGIN :

Iscrizione | Disclaimer

   EN    FR    IT 

 










Sommario :    VFR   VFR Marginale   IFR   IFR Intensivo   IFR Molto Intensivo
Visibilità : 
Base nubi : 
>= 8 km
>= 3000ft
5 / 8 km
1000 / 3000 ft
1500m / 5 km
500 / 1000 ft
800 / 1500m
200 / 500 ft
< 800m
< 200 ft
Simboli :   Temporali  Nebbia  Neve Forte  Precipitazioni Forti  Vento > 20 kt
SIGMETs :   Varie  Temporali  Ghiacco  Turbolenza  Onda orograficha  Ceneri Vulcaniche







- Altitudine del aeroporto : 512 ft
- Codice IATA : URO
- Carte del aeroporto


LFOP - Rouen Vallée de Seine

ULTIMO METAR :
  • 200800Z AUTO VRB03KT 5000 BR NSC 12/10 Q1011 NOSIG

METARs OBSOLETI :
  • 200730Z AUTO 29004KT 250V320 5000 BR NSC 12/09 Q1011 NOSIG
  • 200700Z AUTO 30004KT 270V340 6000 OVC048 12/09 Q1011 TEMPO 4000 BR BKN005
  • 200630Z AUTO 33006KT 8000 OVC048 12/09 Q1011 TEMPO 4000 BR BKN005
  • 200600Z AUTO 32008KT 9000 SCT043 OVC050 11/09 Q1010 TEMPO 4000 BR BKN005
  • 200530Z AUTO 32006KT 6000 BKN043 OVC056 11/09 Q1010 TEMPO 4000 BR BKN005

TAF TAF LFOP
Valido dal 20 a 06 ore il 21 a 06 ore UTC


200500Z 2006/2106 30008KT 8000 BKN030
TEMPO 2006/2008 4000 BR BKN005
BECMG 2021/2024 4000 BR OVC005
ATIS : +33 2 35 80 80 34
Met : +33 2 32 86 52 80
Nessun NOTAM noto per questo aeroporto.



MetMap, La meteo Aeronautica in un colpo d'occhio ! - Copyright ORBIFLY Dicembre 2007 - Disclaimer

ORBIFLY MET'MAP TEAM :

Programmazione e sviluppo : Alexandra Zaïnal
Concezione e sviluppo : Baudouin d'Aumeries
Co-Programmazione e sviluppo : Marc-Olivier Méhu
Supporto tecnico e logistico : Manuel Goepfert
Aiuto per la traduzione : Arnaldo La Scala

Contatto : metmap@orbifly.com




FONTI E CREDITI :

   NOAA